createdAt,value
2022-10-01T00:02:16.141Z,98298.41
2022-10-01T00:04:44.177Z,98290.69
2022-10-01T00:07:15.079Z,98285.94
2022-10-01T00:09:43.161Z,98285.25
2022-10-01T00:12:11.148Z,98281.19
2022-10-01T00:14:41.450Z,98275.09
2022-10-01T00:17:09.432Z,98275.16
2022-10-01T00:19:41.071Z,98268.59
2022-10-01T00:22:09.076Z,98266.91
2022-10-01T00:24:37.690Z,98266.97
2022-10-01T00:27:05.679Z,98266.75
2022-10-01T00:29:33.724Z,98266.16
2022-10-01T00:32:03.889Z,98272.69
2022-10-01T00:34:31.984Z,98276.44
2022-10-01T00:37:01.428Z,98279.75
2022-10-01T00:39:29.440Z,98278.91
2022-10-01T00:41:57.417Z,98292.63
2022-10-01T00:44:29.369Z,98294.41
2022-10-01T00:46:59.315Z,98294.13
2022-10-01T00:49:29.263Z,98296.63
2022-10-01T00:52:01.405Z,98304.25
2022-10-01T00:54:33.165Z,98295.78
2022-10-01T00:57:02.066Z,98297.66
2022-10-01T00:59:30.743Z,98284.84
2022-10-01T01:01:58.782Z,98286.16
2022-10-01T01:04:27.813Z,98278.22
2022-10-01T01:06:57.933Z,98275.53
2022-10-01T01:09:30.446Z,98282.13
2022-10-01T01:12:04.715Z,98277.78
2022-10-01T01:14:37.844Z,98270.28
2022-10-01T01:17:12.498Z,98270.06
2022-10-01T01:19:53.287Z,98236.19
2022-10-01T01:22:22.348Z,98268.03
2022-10-01T01:24:56.837Z,98258.50
2022-10-01T01:27:35.874Z,98260.53
2022-10-01T01:30:06.203Z,98248.22
2022-10-01T01:32:39.384Z,98242.41
2022-10-01T01:35:09.228Z,98231.41
2022-10-01T01:37:40.511Z,98219.41
2022-10-01T01:40:11.455Z,98219.25
2022-10-01T01:42:42.462Z,98228.28
2022-10-01T01:45:16.200Z,98226.38
2022-10-01T01:47:45.039Z,98217.28
2022-10-01T01:50:14.066Z,98210.41
2022-10-01T01:52:42.218Z,98209.47
2022-10-01T01:55:10.759Z,98201.00
2022-10-01T01:57:40.247Z,98199.53
2022-10-01T02:00:09.197Z,98198.34
2022-10-01T02:02:41.402Z,98190.31
2022-10-01T02:05:10.747Z,98201.06
2022-10-01T02:07:52.726Z,98193.59
2022-10-01T02:10:31.804Z,98192.09
2022-10-01T02:13:08.216Z,98189.00
2022-10-01T02:15:41.674Z,98188.81
2022-10-01T02:18:17.478Z,98182.06
2022-10-01T02:20:47.215Z,98178.84
2022-10-01T02:23:17.462Z,98175.66
2022-10-01T02:25:48.373Z,98184.50
2022-10-01T02:28:22.599Z,98169.75
2022-10-01T02:30:51.322Z,98172.44
2022-10-01T02:33:22.834Z,98177.78
2022-10-01T02:35:52.030Z,98168.28
2022-10-01T02:38:22.267Z,98171.97
2022-10-01T02:40:52.030Z,98158.00
2022-10-01T02:43:22.116Z,98149.31
2022-10-01T02:45:52.614Z,98149.75
2022-10-01T02:48:27.145Z,98151.25
2022-10-01T02:50:58.605Z,98152.13
2022-10-01T02:53:29.835Z,98151.31
2022-10-01T02:55:59.403Z,98150.78
2022-10-01T02:58:26.691Z,98153.16
2022-10-01T03:00:57.148Z,98146.00
2022-10-01T03:03:27.286Z,98117.91
2022-10-01T03:05:55.245Z,98143.22
2022-10-01T03:08:23.279Z,98146.47
2022-10-01T03:10:51.406Z,98141.06
2022-10-01T03:13:19.786Z,98133.16
2022-10-01T03:15:47.909Z,98100.56
2022-10-01T03:18:15.942Z,98130.56
2022-10-01T03:20:45.298Z,98111.72
2022-10-01T03:23:13.237Z,98117.50
2022-10-01T03:25:43.619Z,98116.66
2022-10-01T03:28:12.558Z,98115.03
2022-10-01T03:30:40.529Z,98112.19
2022-10-01T03:33:08.490Z,98115.56
2022-10-01T03:35:36.441Z,98109.94
2022-10-01T03:38:06.511Z,98095.50
2022-10-01T03:40:38.883Z,98092.03
2022-10-01T03:43:07.098Z,98092.19
2022-10-01T03:45:35.117Z,98083.59
2022-10-01T03:48:03.098Z,98086.53
2022-10-01T03:50:31.541Z,98070.09
2022-10-01T03:53:00.147Z,98070.69
2022-10-01T03:55:29.602Z,98072.38
2022-10-01T03:57:58.607Z,98071.91
2022-10-01T04:00:26.874Z,98074.66
2022-10-01T04:02:57.315Z,98067.06
2022-10-01T04:05:25.584Z,98064.81
2022-10-01T04:07:53.501Z,98051.19
2022-10-01T04:10:21.462Z,98051.63
2022-10-01T04:12:55.526Z,98042.44
2022-10-01T04:15:24.954Z,98038.63
2022-10-01T04:17:52.950Z,98046.16
2022-10-01T04:20:20.880Z,98046.56
2022-10-01T04:22:48.965Z,98049.94
2022-10-01T04:25:16.978Z,98051.78
2022-10-01T04:27:56.237Z,98032.25
2022-10-01T04:30:24.510Z,98033.56
2022-10-01T04:32:52.426Z,98033.72
2022-10-01T04:35:20.627Z,98033.44
2022-10-01T04:37:49.315Z,98033.47
2022-10-01T04:40:17.350Z,98038.31
2022-10-01T04:42:47.651Z,98030.00
2022-10-01T04:45:17.115Z,98029.47
2022-10-01T04:47:49.122Z,98032.25
2022-10-01T04:50:18.034Z,98033.88
2022-10-01T04:52:49.730Z,98036.06
2022-10-01T04:55:18.814Z,98038.09
2022-10-01T04:57:46.836Z,98036.44
2022-10-01T05:00:17.006Z,98034.94
2022-10-01T05:02:46.828Z,98038.38
2022-10-01T05:05:17.925Z,98039.56
2022-10-01T05:07:46.442Z,98027.03
2022-10-01T05:10:15.257Z,98024.09
2022-10-01T05:12:43.518Z,97988.78
2022-10-01T05:15:11.984Z,98020.34
2022-10-01T05:17:40.013Z,98022.66
2022-10-01T05:20:11.460Z,98018.00
2022-10-01T05:22:41.802Z,98006.28
2022-10-01T05:25:10.034Z,98006.97
2022-10-01T05:27:40.694Z,98003.09
2022-10-01T05:30:09.366Z,98015.28
2022-10-01T05:32:37.636Z,98010.28
2022-10-01T05:35:06.354Z,98005.09
2022-10-01T05:37:35.622Z,98002.63
2022-10-01T05:40:03.738Z,97993.38
2022-10-01T05:42:31.702Z,98000.28
2022-10-01T05:44:59.643Z,98007.28
2022-10-01T05:47:29.690Z,97999.78
2022-10-01T05:49:57.648Z,97999.59
2022-10-01T05:52:25.637Z,97993.63
2022-10-01T05:54:54.955Z,97994.06
2022-10-01T05:57:22.966Z,98004.50
2022-10-01T05:59:50.926Z,97997.94
2022-10-01T06:02:21.139Z,98008.75
2022-10-01T06:04:49.193Z,97994.66
2022-10-01T06:07:17.162Z,97992.91
2022-10-01T06:09:45.140Z,97992.88
2022-10-01T06:12:17.728Z,97983.50
2022-10-01T06:14:50.091Z,97978.25
2022-10-01T06:17:20.178Z,97984.34
2022-10-01T06:19:48.102Z,97989.81
2022-10-01T06:22:16.399Z,97993.69
2022-10-01T06:24:44.378Z,97990.44
2022-10-01T06:27:13.693Z,97985.53
2022-10-01T06:29:41.612Z,97988.63
2022-10-01T06:32:13.407Z,97985.22
2022-10-01T06:34:41.530Z,97989.72
2022-10-01T06:37:09.434Z,97980.94
2022-10-01T06:39:37.428Z,97973.41
2022-10-01T06:42:05.739Z,97995.13
2022-10-01T06:44:35.099Z,97998.50
2022-10-01T06:47:03.108Z,97999.19
2022-10-01T06:49:31.095Z,98008.03
2022-10-01T06:52:16.624Z,97993.13
2022-10-01T06:54:44.651Z,98004.28
2022-10-01T06:57:12.603Z,98003.66
2022-10-01T06:59:41.912Z,98013.22
2022-10-01T07:02:15.569Z,98003.69
2022-10-01T07:04:43.544Z,98005.31
2022-10-01T07:07:11.515Z,97995.00
2022-10-01T07:09:39.516Z,98003.81
2022-10-01T07:12:07.851Z,97999.94
2022-10-01T07:14:35.802Z,97992.53
2022-10-01T07:17:07.592Z,97980.34
2022-10-01T07:19:37.638Z,97977.28
2022-10-01T07:22:05.849Z,97965.06
2022-10-01T07:24:33.806Z,97971.66
2022-10-01T07:27:07.091Z,97976.00
2022-10-01T07:29:35.441Z,97976.69
2022-10-01T07:32:08.868Z,97979.28
2022-10-01T07:34:38.146Z,97984.31
2022-10-01T07:37:06.444Z,97990.53
2022-10-01T07:39:37.751Z,97978.94
2022-10-01T07:42:05.849Z,97990.19
2022-10-01T07:44:33.807Z,97989.03
2022-10-01T07:47:01.847Z,97988.41
2022-10-01T07:49:31.172Z,97991.09
2022-10-01T07:51:59.615Z,97984.81
2022-10-01T07:54:27.759Z,97983.94
2022-10-01T07:56:56.635Z,97986.56
2022-10-01T07:59:27.882Z,97977.34
2022-10-01T08:01:55.986Z,97991.09
2022-10-01T08:04:41.595Z,98004.31
2022-10-01T08:07:10.892Z,98003.19
2022-10-01T08:09:41.183Z,98001.09
2022-10-01T08:12:09.149Z,98002.50
2022-10-01T08:14:37.102Z,98010.13
2022-10-01T08:17:08.463Z,98004.66
2022-10-01T08:19:37.308Z,98011.00
2022-10-01T08:22:05.632Z,98018.69
2022-10-01T08:24:36.237Z,98024.72
2022-10-01T08:27:04.390Z,98022.13
2022-10-01T08:29:34.264Z,98028.69
2022-10-01T08:32:02.508Z,98024.81
2022-10-01T08:34:31.314Z,98015.44
2022-10-01T08:37:01.511Z,98031.88
2022-10-01T08:39:32.733Z,98027.22
2022-10-01T08:42:05.600Z,98040.66
2022-10-01T08:44:37.860Z,98036.13
2022-10-01T08:47:08.287Z,98032.63
2022-10-01T08:49:38.506Z,98039.56
2022-10-01T08:52:14.429Z,98050.59
2022-10-01T08:54:46.659Z,98048.91
2022-10-01T08:57:17.872Z,98039.34
2022-10-01T08:59:47.154Z,98026.13
2022-10-01T09:02:23.367Z,98035.19
2022-10-01T09:04:55.894Z,98033.47
2022-10-01T09:07:34.803Z,98027.25
2022-10-01T09:10:07.628Z,98021.31
2022-10-01T09:12:45.489Z,98025.69
2022-10-01T09:15:17.865Z,98028.06
2022-10-01T09:17:53.600Z,98025.09
2022-10-01T09:20:24.784Z,98038.25
2022-10-01T09:23:02.959Z,98042.19
2022-10-01T09:25:32.062Z,98041.25
2022-10-01T09:28:04.268Z,98040.47
2022-10-01T09:30:32.816Z,98047.13
2022-10-01T09:33:06.127Z,98051.31
2022-10-01T09:35:38.571Z,98061.00
2022-10-01T09:38:11.571Z,98052.03
2022-10-01T09:40:43.708Z,98071.94
2022-10-01T09:43:14.074Z,98068.16
2022-10-01T09:45:42.737Z,98065.00
2022-10-01T09:48:16.308Z,98065.34
2022-10-01T09:50:50.312Z,98061.03
2022-10-01T09:53:21.155Z,98051.47
2022-10-01T09:55:53.778Z,98043.34
2022-10-01T09:58:24.720Z,98042.88
2022-10-01T10:00:53.841Z,98034.16
2022-10-01T10:03:26.517Z,98009.50
2022-10-01T10:05:55.047Z,97996.72
2022-10-01T10:08:27.611Z,98008.06
2022-10-01T10:10:58.371Z,98015.75
2022-10-01T10:13:31.557Z,98009.09
2022-10-01T10:16:00.750Z,98019.22
2022-10-01T10:18:29.784Z,98033.59
2022-10-01T10:21:02.646Z,98035.00
2022-10-01T10:23:31.312Z,98028.44
2022-10-01T10:26:02.851Z,98023.19
2022-10-01T10:28:43.871Z,98021.28
2022-10-01T10:31:15.304Z,98020.91
2022-10-01T10:33:47.792Z,98023.50
2022-10-01T10:36:16.627Z,98019.31
2022-10-01T10:38:47.441Z,98023.91
2022-10-01T10:41:19.404Z,98031.31
2022-10-01T10:43:50.560Z,98012.59
2022-10-01T10:46:22.868Z,98011.19
2022-10-01T10:48:58.686Z,98008.72
2022-10-01T10:51:28.226Z,98002.81
2022-10-01T10:53:59.093Z,97998.69
2022-10-01T10:56:27.080Z,97994.66
2022-10-01T10:58:57.435Z,97991.13
2022-10-01T11:01:28.019Z,97989.13
2022-10-01T11:03:57.573Z,97996.38
2022-10-01T11:06:25.556Z,97981.13
2022-10-01T11:09:00.782Z,97989.56
2022-10-01T11:11:36.750Z,97982.22
2022-10-01T11:14:18.067Z,97985.59
2022-10-01T11:17:01.262Z,98003.44
2022-10-01T11:19:39.949Z,98010.81
2022-10-01T11:22:15.082Z,97998.19
2022-10-01T11:24:55.472Z,98005.66
2022-10-01T11:27:28.228Z,98008.00
2022-10-01T11:30:05.344Z,98006.00
2022-10-01T11:32:36.322Z,98012.41
2022-10-01T11:35:11.392Z,98014.53
2022-10-01T11:37:44.199Z,98017.91
2022-10-01T11:40:16.739Z,98022.50
2022-10-01T11:42:47.119Z,98029.03
2022-10-01T11:45:21.286Z,98026.78
2022-10-01T11:47:52.864Z,98010.44
2022-10-01T11:50:26.184Z,98029.09
2022-10-01T11:52:57.622Z,98030.06
2022-10-01T11:55:45.225Z,98020.19
2022-10-01T11:58:33.948Z,98010.84
2022-10-01T12:01:06.537Z,98008.38
2022-10-01T12:03:38.119Z,98016.38
2022-10-01T12:06:09.482Z,98028.81
2022-10-01T12:08:42.734Z,98004.25
2022-10-01T12:11:17.734Z,97997.44
2022-10-01T12:13:53.127Z,98001.78
2022-10-01T12:16:26.496Z,97998.91
2022-10-01T12:18:57.851Z,97998.97
2022-10-01T12:21:29.051Z,97996.63
2022-10-01T12:23:59.241Z,97993.97
2022-10-01T12:26:35.472Z,97996.31
2022-10-01T12:29:09.842Z,98001.50
2022-10-01T12:31:43.510Z,98010.81
2022-10-01T12:34:16.804Z,98003.78
2022-10-01T12:36:49.500Z,98007.66
2022-10-01T12:39:25.104Z,97998.06
2022-10-01T12:42:00.023Z,97992.50
2022-10-01T12:44:37.106Z,98008.78
2022-10-01T12:47:12.410Z,98000.16
2022-10-01T12:49:44.581Z,98004.00
2022-10-01T12:52:18.577Z,97989.94
2022-10-01T12:54:55.192Z,97992.78
2022-10-01T12:57:28.910Z,97996.75
2022-10-01T13:00:02.257Z,98006.84
2022-10-01T13:02:48.825Z,98000.88
2022-10-01T13:05:20.054Z,97997.31
2022-10-01T13:07:56.485Z,97992.69
2022-10-01T13:10:35.952Z,98003.88
2022-10-01T13:13:08.111Z,97997.63
2022-10-01T13:15:37.828Z,97999.31
2022-10-01T13:18:14.982Z,98004.22
2022-10-01T13:20:49.021Z,98003.16
2022-10-01T13:23:21.371Z,97992.56
2022-10-01T13:25:57.503Z,97997.09
2022-10-01T13:28:29.853Z,97980.78
2022-10-01T13:31:01.293Z,97986.25
2022-10-01T13:33:32.151Z,97987.88
2022-10-01T13:36:00.989Z,97973.84
2022-10-01T13:38:40.500Z,97982.94
2022-10-01T13:41:17.632Z,97982.03
2022-10-01T13:43:52.469Z,97985.88
2022-10-01T13:46:20.938Z,97996.59
2022-10-01T13:48:51.081Z,97986.16
2022-10-01T13:51:20.213Z,97991.97
2022-10-01T13:53:55.539Z,97987.31
2022-10-01T13:56:32.438Z,97997.09
2022-10-01T13:59:00.972Z,98003.19
2022-10-01T14:01:38.182Z,97998.81
2022-10-01T14:04:17.791Z,98000.75
2022-10-01T14:06:51.741Z,97999.66
2022-10-01T14:09:23.889Z,98009.69
2022-10-01T14:12:14.585Z,98011.59
2022-10-01T14:15:02.086Z,98014.56
2022-10-01T14:17:31.506Z,98005.31
2022-10-01T14:20:01.352Z,98007.50
2022-10-01T14:22:44.256Z,98006.72
2022-10-01T14:25:20.940Z,98010.25
2022-10-01T14:27:53.965Z,98015.09
2022-10-01T14:30:24.991Z,98015.13
2022-10-01T14:33:07.639Z,98005.91
2022-10-01T14:35:39.655Z,98024.16
2022-10-01T14:38:13.305Z,98023.56
2022-10-01T14:40:42.956Z,98023.53
2022-10-01T14:43:16.932Z,98022.78
2022-10-01T14:45:52.296Z,98028.00
2022-10-01T14:48:20.304Z,98033.16
2022-10-01T14:50:51.759Z,98031.22
2022-10-01T14:53:20.454Z,98029.88
2022-10-01T14:55:49.342Z,98037.78
2022-10-01T14:58:20.996Z,98032.88
2022-10-01T15:00:51.083Z,98032.06
2022-10-01T15:03:19.064Z,98036.16
2022-10-01T15:05:48.295Z,98034.78
2022-10-01T15:08:19.754Z,98043.78
2022-10-01T15:10:50.794Z,98036.94
2022-10-01T15:13:20.017Z,98041.84
2022-10-01T15:15:48.055Z,98039.63
2022-10-01T15:18:17.552Z,98044.59
2022-10-01T15:20:55.824Z,98040.78
2022-10-01T15:23:28.780Z,98044.59
2022-10-01T15:25:58.009Z,98044.84
2022-10-01T15:28:28.541Z,98046.53
2022-10-01T15:30:57.824Z,98051.06
2022-10-01T15:33:28.476Z,98051.59
2022-10-01T15:35:58.108Z,98035.69
2022-10-01T15:38:30.859Z,98052.63
2022-10-01T15:41:19.850Z,98063.47
2022-10-01T15:43:48.415Z,98054.78
2022-10-01T15:46:17.816Z,98052.34
2022-10-01T15:48:46.565Z,98058.59
2022-10-01T15:51:20.096Z,98064.06
2022-10-01T15:53:49.520Z,98067.09
2022-10-01T15:56:18.661Z,98062.13
2022-10-01T15:58:51.074Z,98070.97
2022-10-01T16:01:22.490Z,98072.69
2022-10-01T16:03:53.492Z,98072.19
2022-10-01T16:06:23.790Z,98078.47
2022-10-01T16:09:06.333Z,98084.19
2022-10-01T16:11:51.051Z,98094.59
2022-10-01T16:14:22.211Z,98086.53
2022-10-01T16:16:50.642Z,98096.53
2022-10-01T16:19:29.378Z,98102.03
2022-10-01T16:22:14.622Z,98098.97
2022-10-01T16:24:45.494Z,98108.88
2022-10-01T16:27:15.975Z,98114.94
2022-10-01T16:29:44.381Z,98123.41
2022-10-01T16:32:14.448Z,98122.06
2022-10-01T16:34:42.431Z,98110.47
2022-10-01T16:37:10.432Z,98117.69
2022-10-01T16:39:38.529Z,98114.59
2022-10-01T16:42:23.452Z,98126.97
2022-10-01T16:44:52.474Z,98123.63
2022-10-01T16:47:20.454Z,98117.66
2022-10-01T16:49:48.915Z,98119.47
2022-10-01T16:52:17.558Z,98128.34
2022-10-01T16:54:47.315Z,98120.63
2022-10-01T16:57:16.903Z,98137.16
2022-10-01T16:59:44.955Z,98149.06
2022-10-01T17:02:14.112Z,98121.81
2022-10-01T17:04:44.414Z,98146.13
2022-10-01T17:07:12.378Z,98168.72
2022-10-01T17:09:40.948Z,98169.06
2022-10-01T17:12:09.985Z,98175.31
2022-10-01T17:14:39.271Z,98170.84
2022-10-01T17:17:07.279Z,98173.22
2022-10-01T17:19:35.242Z,98174.09
2022-10-01T17:22:03.287Z,98190.66
2022-10-01T17:24:32.815Z,98196.59
2022-10-01T17:27:00.979Z,98183.44
2022-10-01T17:29:30.802Z,98190.88
2022-10-01T17:32:00.293Z,98195.56
2022-10-01T17:34:28.300Z,98187.47
2022-10-01T17:36:56.400Z,98191.28
2022-10-01T17:39:24.563Z,98201.38
2022-10-01T17:41:52.604Z,98210.75
2022-10-01T17:44:20.606Z,98215.03
2022-10-01T17:46:48.579Z,98212.06
2022-10-01T17:49:18.565Z,98222.16
2022-10-01T17:51:49.322Z,98229.84
2022-10-01T17:54:17.645Z,98246.69
2022-10-01T17:56:45.808Z,98252.41
2022-10-01T17:59:14.121Z,98262.16
2022-10-01T18:01:42.150Z,98273.03
2022-10-01T18:04:12.267Z,98256.84
2022-10-01T18:06:42.264Z,98258.97
2022-10-01T18:09:10.280Z,98270.31
2022-10-01T18:11:39.363Z,98277.41
2022-10-01T18:14:07.688Z,98285.00
2022-10-01T18:16:39.438Z,98294.22
2022-10-01T18:19:52.494Z,98304.41
2022-10-01T18:22:03.159Z,98313.25
2022-10-01T18:24:33.054Z,98317.72
2022-10-01T18:27:01.030Z,98324.75
2022-10-01T18:29:29.127Z,98335.97
2022-10-01T18:32:02.874Z,98325.69
2022-10-01T18:34:33.059Z,98349.47
2022-10-01T18:37:05.601Z,98344.66
2022-10-01T18:39:35.459Z,98336.97
2022-10-01T18:42:04.589Z,98334.47
2022-10-01T18:44:32.803Z,98350.91
2022-10-01T18:47:08.897Z,98364.50
2022-10-01T18:49:54.842Z,98364.31
2022-10-01T18:52:28.273Z,98378.78
2022-10-01T18:55:06.666Z,98375.75
2022-10-01T18:57:45.701Z,98383.47
2022-10-01T19:00:15.492Z,98382.56
2022-10-01T19:03:02.226Z,98378.25
2022-10-01T19:06:04.434Z,98376.22
2022-10-01T19:08:41.999Z,98373.91
2022-10-01T19:11:18.135Z,98395.16
2022-10-01T19:13:52.079Z,98378.69
2022-10-01T19:16:28.136Z,98384.97
2022-10-01T19:19:07.894Z,98398.06
2022-10-01T19:21:40.883Z,98395.66
2022-10-01T19:24:32.741Z,98401.69
2022-10-01T19:27:05.251Z,98416.75
2022-10-01T19:29:50.334Z,98426.63
2022-10-01T19:32:20.818Z,98430.78
2022-10-01T19:34:50.778Z,98437.84
2022-10-01T19:37:24.498Z,98444.91
2022-10-01T19:39:54.157Z,98446.09
2022-10-01T19:42:26.811Z,98475.91
2022-10-01T19:44:58.582Z,98476.97
2022-10-01T19:47:32.631Z,98482.88
2022-10-01T19:50:06.336Z,98479.84
2022-10-01T19:52:39.506Z,98489.81
2022-10-01T19:55:14.212Z,98500.00
2022-10-01T19:57:44.367Z,98489.03
2022-10-01T20:00:17.970Z,98495.31
2022-10-01T20:02:53.934Z,98500.16
2022-10-01T20:05:29.224Z,98505.84
2022-10-01T20:08:04.189Z,98514.16
2022-10-01T20:10:37.262Z,98524.53
2022-10-01T20:13:25.344Z,98537.91
2022-10-01T20:15:57.036Z,98546.16
2022-10-01T20:18:31.116Z,98562.03
2022-10-01T20:21:05.262Z,98567.75
2022-10-01T20:23:43.478Z,98556.53
2022-10-01T20:26:16.836Z,98572.81
2022-10-01T20:28:52.721Z,98584.72
2022-10-01T20:31:23.523Z,98584.25
2022-10-01T20:33:59.814Z,98601.22
2022-10-01T20:36:35.135Z,98598.50
2022-10-01T20:39:07.831Z,98599.13
2022-10-01T20:41:42.399Z,98600.28
2022-10-01T20:44:16.152Z,98605.78
2022-10-01T20:46:46.762Z,98606.91
2022-10-01T20:49:20.611Z,98613.19
2022-10-01T20:51:53.189Z,98613.50
2022-10-01T20:54:22.876Z,98617.31
2022-10-01T20:56:55.669Z,98618.22
2022-10-01T20:59:28.141Z,98621.56
2022-10-01T21:02:02.246Z,98619.00
2022-10-01T21:04:33.646Z,98617.53
2022-10-01T21:07:10.815Z,98622.25
2022-10-01T21:09:42.188Z,98619.53
2022-10-01T21:12:16.133Z,98617.78
2022-10-01T21:14:47.734Z,98625.09
2022-10-01T21:17:21.548Z,98632.22
2022-10-01T21:20:02.209Z,98633.06
2022-10-01T21:22:37.637Z,98626.25
2022-10-01T21:25:12.932Z,98633.22
2022-10-01T21:27:50.422Z,98647.06
2022-10-01T21:30:20.878Z,98651.06
2022-10-01T21:33:00.061Z,98644.88
2022-10-01T21:35:34.200Z,98644.00
2022-10-01T21:38:06.147Z,98629.81
2022-10-01T21:40:40.187Z,98643.81
2022-10-01T21:43:13.303Z,98649.44
2022-10-01T21:45:45.573Z,98659.84
2022-10-01T21:48:20.580Z,98653.22
2022-10-01T21:50:53.939Z,98648.53
2022-10-01T21:53:37.883Z,98645.47
2022-10-01T21:56:30.007Z,98657.84
2022-10-01T22:02:47.353Z,98646.53
2022-10-01T22:05:22.515Z,98656.50
2022-10-01T22:08:00.621Z,98660.78
2022-10-01T22:10:35.144Z,98663.84
2022-10-01T22:13:07.764Z,98681.94
2022-10-01T22:15:39.631Z,98669.72
2022-10-01T22:18:15.880Z,98675.63
2022-10-01T22:20:45.930Z,98666.22
2022-10-01T22:23:18.175Z,98670.19
2022-10-01T22:25:52.392Z,98665.59
2022-10-01T22:28:26.193Z,98673.47
2022-10-01T22:30:57.437Z,98686.88
2022-10-01T22:33:33.401Z,98681.31
2022-10-01T22:36:08.274Z,98692.81
2022-10-01T22:38:43.079Z,98683.44
2022-10-01T22:41:17.310Z,98694.09
2022-10-01T22:43:45.822Z,98699.56
2022-10-01T22:46:38.890Z,98699.84
2022-10-01T22:49:20.757Z,98700.50
2022-10-01T22:52:01.660Z,98712.44
2022-10-01T22:54:35.955Z,98716.13
2022-10-01T22:57:10.263Z,98701.19
2022-10-01T22:59:43.632Z,98711.50
2022-10-01T23:02:18.137Z,98703.03
2022-10-01T23:04:55.888Z,98713.22
2022-10-01T23:07:29.694Z,98708.13
2022-10-01T23:10:00.718Z,98707.38
2022-10-01T23:12:34.750Z,98714.03
2022-10-01T23:15:11.515Z,98712.50
2022-10-01T23:17:42.823Z,98721.31
2022-10-01T23:20:17.033Z,98716.72
2022-10-01T23:22:56.179Z,98720.13
2022-10-01T23:25:30.216Z,98714.78
2022-10-01T23:28:06.599Z,98723.31
2022-10-01T23:30:38.348Z,98738.16
2022-10-01T23:33:22.330Z,98743.22
2022-10-01T23:35:59.560Z,98724.59
2022-10-01T23:38:43.308Z,98736.81
2022-10-01T23:41:14.774Z,98726.56
2022-10-01T23:43:46.371Z,98734.22
2022-10-01T23:46:16.107Z,98731.13
2022-10-01T23:48:47.283Z,98741.34
2022-10-01T23:51:19.976Z,98741.47
2022-10-01T23:53:52.860Z,98748.69
2022-10-01T23:56:41.004Z,98753.28
2022-10-01T23:59:11.604Z,98770.88
